OIAH  Gachsaran  Airport

Gachsaran, Iran

Add Bookmark
ICAO OIAH
Type Airport
Status Operational
Latitude
30° 20' 15" N
30.337601
Longitude
50° 49' 40" E
50.827999
Local (GMT +3.5 ) UTC
Dec 6, 2016 04:15 am Dec 6, 2016 00:45
Sunrise-Sunset Local UTC
Begin Civil Twilight 06:22 am 02:52
Sunrise 06:48 am 03:18
Sunset 05:07 pm 13:37
End Civil Twilight 05:33 pm 14:03
VFR
VFR
MVFR
MVFR
IFR
IFR
LIFR
LIFR
Unknown
No Data

Current Weather

METAR Observed VFR
OIAH 060000Z 00000KT 9999 FEW040 BKN100 16/12 Q1019 Tue, Dec 6, 2016 @ 00:00 UTC
(45 Minutes ago)
Visual Flight Rules
Wind Visibility Clouds Conditions
Calm 10 km or more
  • Few at 4,000 ft AGL
  • Broken at 10,000 ft AGL
  • No significant weather
Temperatures Readings Precipitation
Current Temp
16°C
61°F
Dewpoint
12°C
54°F
Humidity 77%
Altimeter 30.09" Hg
Sea Level Pressure 1,019 mb
Field Elevation
738 m
2,421 ft
None Recorded

Additional weather within a 92.6km radius of OIAH

Map ICAO Location
OISY 79.6km E/NE (059°)
VFR
VFR
MVFR
MVFR
IFR
IFR
LIFR
LIFR
Unknown
No Data
-
-

CheckWX.com is intended as a tool to help pilots better visualize weather data. It is not intended as a substitute for an official weather briefing obtained from a Flight Service Station. CheckWX.com does not meet the FAA requirements for an official pre-flight weather briefing. Therefore, it's important that pilots still call and obtain an official FSS pre-flight weather briefing.

© 2007-2016 CheckWX.com
00:45:58 UTC